sensor_id;sensor_type;location;lat;lon;timestamp;temperature;humidity
65207;SHT31;58477;48.072;11.970;2023-12-20T00:01:39;3.34;82.93
65207;SHT31;58477;48.072;11.970;2023-12-20T00:04:05;3.38;81.81
65207;SHT31;58477;48.072;11.970;2023-12-20T00:06:31;3.62;80.55
65207;SHT31;58477;48.072;11.970;2023-12-20T00:08:56;3.71;80.63
65207;SHT31;58477;48.072;11.970;2023-12-20T00:11:23;3.82;79.34
65207;SHT31;58477;48.072;11.970;2023-12-20T00:13:49;3.40;82.56
65207;SHT31;58477;48.072;11.970;2023-12-20T00:16:14;3.27;83.56
65207;SHT31;58477;48.072;11.970;2023-12-20T00:18:39;3.27;83.88
65207;SHT31;58477;48.072;11.970;2023-12-20T00:21:05;3.10;85.54
65207;SHT31;58477;48.072;11.970;2023-12-20T00:23:30;3.01;85.25
65207;SHT31;58477;48.072;11.970;2023-12-20T00:25:55;3.04;84.68
65207;SHT31;58477;48.072;11.970;2023-12-20T00:28:21;2.96;85.14
65207;SHT31;58477;48.072;11.970;2023-12-20T00:30:47;2.93;85.29
65207;SHT31;58477;48.072;11.970;2023-12-20T00:33:12;2.93;85.62
65207;SHT31;58477;48.072;11.970;2023-12-20T00:35:37;3.07;84.53
65207;SHT31;58477;48.072;11.970;2023-12-20T00:38:03;3.13;84.31
65207;SHT31;58477;48.072;11.970;2023-12-20T00:40:30;3.10;85.34
65207;SHT31;58477;48.072;11.970;2023-12-20T00:42:55;3.11;85.34
65207;SHT31;58477;48.072;11.970;2023-12-20T00:45:21;3.06;85.35
65207;SHT31;58477;48.072;11.970;2023-12-20T00:47:46;3.07;84.59
65207;SHT31;58477;48.072;11.970;2023-12-20T00:50:11;3.10;84.23
65207;SHT31;58477;48.072;11.970;2023-12-20T00:52:37;3.14;83.58
65207;SHT31;58477;48.072;11.970;2023-12-20T00:55:03;3.18;82.91
65207;SHT31;58477;48.072;11.970;2023-12-20T00:57:29;3.21;82.70
65207;SHT31;58477;48.072;11.970;2023-12-20T00:59:54;3.17;83.21
65207;SHT31;58477;48.072;11.970;2023-12-20T01:02:20;3.08;83.32
65207;SHT31;58477;48.072;11.970;2023-12-20T01:04:45;3.20;83.83
65207;SHT31;58477;48.072;11.970;2023-12-20T01:07:10;3.26;83.19
65207;SHT31;58477;48.072;11.970;2023-12-20T01:09:36;3.21;83.23
65207;SHT31;58477;48.072;11.970;2023-12-20T01:12:01;3.30;82.78
65207;SHT31;58477;48.072;11.970;2023-12-20T01:14:27;3.21;83.36
65207;SHT31;58477;48.072;11.970;2023-12-20T01:16:52;3.13;83.26
65207;SHT31;58477;48.072;11.970;2023-12-20T01:19:17;3.14;83.58
65207;SHT31;58477;48.072;11.970;2023-12-20T01:21:43;3.13;84.46
65207;SHT31;58477;48.072;11.970;2023-12-20T01:24:09;3.01;84.96
65207;SHT31;58477;48.072;11.970;2023-12-20T01:26:34;3.01;85.67
65207;SHT31;58477;48.072;11.970;2023-12-20T01:29:00;3.14;84.22
65207;SHT31;58477;48.072;11.970;2023-12-20T01:31:26;3.23;84.47
65207;SHT31;58477;48.072;11.970;2023-12-20T01:33:52;3.24;84.11
65207;SHT31;58477;48.072;11.970;2023-12-20T01:36:18;3.30;83.50
65207;SHT31;58477;48.072;11.970;2023-12-20T01:38:43;3.24;83.68
65207;SHT31;58477;48.072;11.970;2023-12-20T01:41:08;3.06;85.89
65207;SHT31;58477;48.072;11.970;2023-12-20T01:43:34;2.92;86.95
65207;SHT31;58477;48.072;11.970;2023-12-20T01:46:00;2.82;87.19
65207;SHT31;58477;48.072;11.970;2023-12-20T01:48:26;2.72;87.17
65207;SHT31;58477;48.072;11.970;2023-12-20T01:50:53;2.86;86.41
65207;SHT31;58477;48.072;11.970;2023-12-20T01:53:21;2.90;86.26
65207;SHT31;58477;48.072;11.970;2023-12-20T01:55:47;3.31;84.33
65207;SHT31;58477;48.072;11.970;2023-12-20T01:58:15;3.62;82.93
65207;SHT31;58477;48.072;11.970;2023-12-20T02:00:42;3.98;81.38
65207;SHT31;58477;48.072;11.970;2023-12-20T02:03:07;4.12;80.94
65207;SHT31;58477;48.072;11.970;2023-12-20T02:05:35;4.28;80.67
65207;SHT31;58477;48.072;11.970;2023-12-20T02:08:00;4.32;80.62
65207;SHT31;58477;48.072;11.970;2023-12-20T02:10:27;4.39;80.35
65207;SHT31;58477;48.072;11.970;2023-12-20T02:12:52;4.53;79.98
65207;SHT31;58477;48.072;11.970;2023-12-20T02:15:18;4.59;79.91
65207;SHT31;58477;48.072;11.970;2023-12-20T02:17:44;4.61;80.19
65207;SHT31;58477;48.072;11.970;2023-12-20T02:20:10;4.46;80.40
65207;SHT31;58477;48.072;11.970;2023-12-20T02:22:36;4.49;80.05
65207;SHT31;58477;48.072;11.970;2023-12-20T02:25:01;4.37;80.30
65207;SHT31;58477;48.072;11.970;2023-12-20T02:27:27;4.35;80.94
65207;SHT31;58477;48.072;11.970;2023-12-20T02:29:53;4.25;81.88
65207;SHT31;58477;48.072;11.970;2023-12-20T02:32:19;4.12;82.51
65207;SHT31;58477;48.072;11.970;2023-12-20T02:34:47;3.96;83.25
65207;SHT31;58477;48.072;11.970;2023-12-20T02:37:12;3.88;83.43
65207;SHT31;58477;48.072;11.970;2023-12-20T02:39:38;3.74;83.33
65207;SHT31;58477;48.072;11.970;2023-12-20T02:42:03;3.54;84.97
65207;SHT31;58477;48.072;11.970;2023-12-20T02:44:29;3.42;84.88
65207;SHT31;58477;48.072;11.970;2023-12-20T02:46:54;3.31;86.02
65207;SHT31;58477;48.072;11.970;2023-12-20T02:49:20;3.37;85.88
65207;SHT31;58477;48.072;11.970;2023-12-20T02:51:45;3.26;86.21
65207;SHT31;58477;48.072;11.970;2023-12-20T02:54:11;3.31;86.09
65207;SHT31;58477;48.072;11.970;2023-12-20T02:56:37;3.34;85.73
65207;SHT31;58477;48.072;11.970;2023-12-20T02:59:02;3.37;85.29
65207;SHT31;58477;48.072;11.970;2023-12-20T03:01:31;3.47;85.13
65207;SHT31;58477;48.072;11.970;2023-12-20T03:03:56;3.60;84.66
65207;SHT31;58477;48.072;11.970;2023-12-20T03:06:22;3.52;85.02
65207;SHT31;58477;48.072;11.970;2023-12-20T03:08:47;3.51;85.18
65207;SHT31;58477;48.072;11.970;2023-12-20T03:11:13;3.55;84.98
65207;SHT31;58477;48.072;11.970;2023-12-20T03:13:38;3.64;84.99
65207;SHT31;58477;48.072;11.970;2023-12-20T03:16:11;3.79;84.78
65207;SHT31;58477;48.072;11.970;2023-12-20T03:18:37;4.05;82.96
65207;SHT31;58477;48.072;11.970;2023-12-20T03:21:03;4.03;83.71
65207;SHT31;58477;48.072;11.970;2023-12-20T03:23:29;4.01;83.99
65207;SHT31;58477;48.072;11.970;2023-12-20T03:25:56;4.16;83.11
65207;SHT31;58477;48.072;11.970;2023-12-20T03:28:21;4.30;82.26
65207;SHT31;58477;48.072;11.970;2023-12-20T03:30:48;4.23;82.67
65207;SHT31;58477;48.072;11.970;2023-12-20T03:33:13;4.15;84.12
65207;SHT31;58477;48.072;11.970;2023-12-20T03:35:39;4.07;84.22
65207;SHT31;58477;48.072;11.970;2023-12-20T03:38:04;4.40;82.21
65207;SHT31;58477;48.072;11.970;2023-12-20T03:40:29;4.46;82.67
65207;SHT31;58477;48.072;11.970;2023-12-20T03:42:55;4.60;81.96
65207;SHT31;58477;48.072;11.970;2023-12-20T03:45:20;4.67;81.90
65207;SHT31;58477;48.072;11.970;2023-12-20T03:47:46;4.79;81.14
65207;SHT31;58477;48.072;11.970;2023-12-20T03:50:12;4.74;81.70
65207;SHT31;58477;48.072;11.970;2023-12-20T03:52:37;4.92;80.54
65207;SHT31;58477;48.072;11.970;2023-12-20T03:55:03;4.92;80.98
65207;SHT31;58477;48.072;11.970;2023-12-20T03:57:28;4.90;81.51
65207;SHT31;58477;48.072;11.970;2023-12-20T03:59:54;5.02;81.34
65207;SHT31;58477;48.072;11.970;2023-12-20T04:02:19;5.12;81.02
65207;SHT31;58477;48.072;11.970;2023-12-20T04:04:44;5.24;81.22
65207;SHT31;58477;48.072;11.970;2023-12-20T04:07:10;5.25;81.71
65207;SHT31;58477;48.072;11.970;2023-12-20T04:09:35;5.34;81.41
65207;SHT31;58477;48.072;11.970;2023-12-20T04:12:02;5.34;81.19
65207;SHT31;58477;48.072;11.970;2023-12-20T04:14:27;5.45;81.21
65207;SHT31;58477;48.072;11.970;2023-12-20T04:16:53;5.45;81.25
65207;SHT31;58477;48.072;11.970;2023-12-20T04:19:18;5.44;81.38
65207;SHT31;58477;48.072;11.970;2023-12-20T04:21:44;5.44;81.80
65207;SHT31;58477;48.072;11.970;2023-12-20T04:24:09;5.44;82.17
65207;SHT31;58477;48.072;11.970;2023-12-20T04:26:35;5.38;82.78
65207;SHT31;58477;48.072;11.970;2023-12-20T04:29:00;5.31;83.57
65207;SHT31;58477;48.072;11.970;2023-12-20T04:31:25;5.42;82.74
65207;SHT31;58477;48.072;11.970;2023-12-20T04:33:51;5.36;83.18
65207;SHT31;58477;48.072;11.970;2023-12-20T04:36:16;5.36;83.47
65207;SHT31;58477;48.072;11.970;2023-12-20T04:38:41;5.32;83.53
65207;SHT31;58477;48.072;11.970;2023-12-20T04:41:07;5.32;83.80
65207;SHT31;58477;48.072;11.970;2023-12-20T04:43:33;5.27;84.21
65207;SHT31;58477;48.072;11.970;2023-12-20T04:45:58;5.31;84.89
65207;SHT31;58477;48.072;11.970;2023-12-20T04:48:23;5.35;85.53
65207;SHT31;58477;48.072;11.970;2023-12-20T04:50:49;5.27;86.38
65207;SHT31;58477;48.072;11.970;2023-12-20T04:53:14;5.27;86.90
65207;SHT31;58477;48.072;11.970;2023-12-20T04:55:39;5.28;87.42
65207;SHT31;58477;48.072;11.970;2023-12-20T04:58:05;5.38;88.24
65207;SHT31;58477;48.072;11.970;2023-12-20T05:00:30;5.46;88.72
65207;SHT31;58477;48.072;11.970;2023-12-20T05:02:56;5.49;89.43
65207;SHT31;58477;48.072;11.970;2023-12-20T05:05:21;5.58;90.05
65207;SHT31;58477;48.072;11.970;2023-12-20T05:07:47;5.54;90.21
65207;SHT31;58477;48.072;11.970;2023-12-20T05:10:12;5.49;90.66
65207;SHT31;58477;48.072;11.970;2023-12-20T05:12:38;5.49;90.82
65207;SHT31;58477;48.072;11.970;2023-12-20T05:15:07;5.51;91.24
65207;SHT31;58477;48.072;11.970;2023-12-20T05:17:33;5.46;91.92
65207;SHT31;58477;48.072;11.970;2023-12-20T05:19:58;5.49;92.28
65207;SHT31;58477;48.072;11.970;2023-12-20T05:22:24;5.36;93.25
65207;SHT31;58477;48.072;11.970;2023-12-20T05:24:49;5.32;94.31
65207;SHT31;58477;48.072;11.970;2023-12-20T05:27:14;5.28;94.99
65207;SHT31;58477;48.072;11.970;2023-12-20T05:29:40;5.17;95.83
65207;SHT31;58477;48.072;11.970;2023-12-20T05:32:05;5.10;96.72
65207;SHT31;58477;48.072;11.970;2023-12-20T05:34:31;5.05;97.12
65207;SHT31;58477;48.072;11.970;2023-12-20T05:36:57;5.02;97.60
65207;SHT31;58477;48.072;11.970;2023-12-20T05:39:23;5.08;97.30
65207;SHT31;58477;48.072;11.970;2023-12-20T05:41:49;5.07;97.71
65207;SHT31;58477;48.072;11.970;2023-12-20T05:44:14;5.10;97.51
65207;SHT31;58477;48.072;11.970;2023-12-20T05:46:39;5.00;97.91
65207;SHT31;58477;48.072;11.970;2023-12-20T05:49:06;5.02;97.43
65207;SHT31;58477;48.072;11.970;2023-12-20T05:51:31;4.94;98.17
65207;SHT31;58477;48.072;11.970;2023-12-20T05:53:57;4.91;98.40
65207;SHT31;58477;48.072;11.970;2023-12-20T05:56:22;4.85;98.77
65207;SHT31;58477;48.072;11.970;2023-12-20T05:58:48;4.84;98.94
65207;SHT31;58477;48.072;11.970;2023-12-20T06:01:14;4.80;99.32
65207;SHT31;58477;48.072;11.970;2023-12-20T06:03:43;4.79;99.55
65207;SHT31;58477;48.072;11.970;2023-12-20T06:06:09;4.69;99.93
65207;SHT31;58477;48.072;11.970;2023-12-20T06:08:35;4.74;99.62
65207;SHT31;58477;48.072;11.970;2023-12-20T06:11:00;4.73;99.15
65207;SHT31;58477;48.072;11.970;2023-12-20T06:13:26;4.71;99.29
65207;SHT31;58477;48.072;11.970;2023-12-20T06:15:53;4.69;99.60
65207;SHT31;58477;48.072;11.970;2023-12-20T06:18:19;4.66;99.90
65207;SHT31;58477;48.072;11.970;2023-12-20T06:20:44;4.61;99.72
65207;SHT31;58477;48.072;11.970;2023-12-20T06:23:09;4.57;99.85
65207;SHT31;58477;48.072;11.970;2023-12-20T06:25:35;4.53;99.89
65207;SHT31;58477;48.072;11.970;2023-12-20T06:28:00;4.52;99.87
65207;SHT31;58477;48.072;11.970;2023-12-20T06:30:25;4.49;99.99
65207;SHT31;58477;48.072;11.970;2023-12-20T06:32:53;4.47;99.82
65207;SHT31;58477;48.072;11.970;2023-12-20T06:35:18;4.45;99.99
65207;SHT31;58477;48.072;11.970;2023-12-20T06:37:44;4.40;99.99
65207;SHT31;58477;48.072;11.970;2023-12-20T06:40:10;4.42;99.99
65207;SHT31;58477;48.072;11.970;2023-12-20T06:42:36;4.36;99.99
65207;SHT31;58477;48.072;11.970;2023-12-20T06:45:02;4.33;99.99
65207;SHT31;58477;48.072;11.970;2023-12-20T06:47:27;4.35;99.99
65207;SHT31;58477;48.072;11.970;2023-12-20T06:49:52;4.32;99.88
65207;SHT31;58477;48.072;11.970;2023-12-20T06:52:18;4.29;99.99
65207;SHT31;58477;48.072;11.970;2023-12-20T06:54:43;4.23;99.99
65207;SHT31;58477;48.072;11.970;2023-12-20T06:57:09;4.17;99.99
65207;SHT31;58477;48.072;11.970;2023-12-20T06:59:41;4.20;99.99
65207;SHT31;58477;48.072;11.970;2023-12-20T07:02:08;4.16;99.88
65207;SHT31;58477;48.072;11.970;2023-12-20T07:04:34;4.10;99.99
65207;SHT31;58477;48.072;11.970;2023-12-20T07:06:59;4.06;99.99
65207;SHT31;58477;48.072;11.970;2023-12-20T07:09:28;3.98;99.79
65207;SHT31;58477;48.072;11.970;2023-12-20T07:11:53;3.93;99.99
65207;SHT31;58477;48.072;11.970;2023-12-20T07:14:19;3.95;99.91
65207;SHT31;58477;48.072;11.970;2023-12-20T07:16:44;3.88;99.99
65207;SHT31;58477;48.072;11.970;2023-12-20T07:19:09;3.89;99.99
65207;SHT31;58477;48.072;11.970;2023-12-20T07:21:35;3.89;99.99
65207;SHT31;58477;48.072;11.970;2023-12-20T07:24:00;3.83;99.99
65207;SHT31;58477;48.072;11.970;2023-12-20T07:26:26;3.82;99.99
65207;SHT31;58477;48.072;11.970;2023-12-20T07:28:51;3.82;99.99
65207;SHT31;58477;48.072;11.970;2023-12-20T07:31:16;3.74;99.99
65207;SHT31;58477;48.072;11.970;2023-12-20T07:33:42;3.83;99.99
65207;SHT31;58477;48.072;11.970;2023-12-20T07:36:07;3.79;99.99
65207;SHT31;58477;48.072;11.970;2023-12-20T07:38:33;3.81;99.99
65207;SHT31;58477;48.072;11.970;2023-12-20T07:40:59;3.82;99.99
65207;SHT31;58477;48.072;11.970;2023-12-20T07:43:24;3.78;99.99
65207;SHT31;58477;48.072;11.970;2023-12-20T07:45:50;3.77;99.99
65207;SHT31;58477;48.072;11.970;2023-12-20T07:48:15;3.72;99.99
65207;SHT31;58477;48.072;11.970;2023-12-20T07:50:41;3.75;99.99
65207;SHT31;58477;48.072;11.970;2023-12-20T07:53:06;3.68;99.99
65207;SHT31;58477;48.072;11.970;2023-12-20T07:55:32;3.77;99.99
65207;SHT31;58477;48.072;11.970;2023-12-20T07:57:57;3.74;99.99
65207;SHT31;58477;48.072;11.970;2023-12-20T08:00:23;3.78;99.99
65207;SHT31;58477;48.072;11.970;2023-12-20T08:02:48;3.74;99.99
65207;SHT31;58477;48.072;11.970;2023-12-20T08:05:14;3.75;99.99
65207;SHT31;58477;48.072;11.970;2023-12-20T08:07:39;3.77;99.99
65207;SHT31;58477;48.072;11.970;2023-12-20T08:10:05;3.78;99.99
65207;SHT31;58477;48.072;11.970;2023-12-20T08:12:31;3.75;99.99
65207;SHT31;58477;48.072;11.970;2023-12-20T08:14:56;3.78;99.99
65207;SHT31;58477;48.072;11.970;2023-12-20T08:17:22;3.79;99.99
65207;SHT31;58477;48.072;11.970;2023-12-20T08:19:48;3.81;99.99
65207;SHT31;58477;48.072;11.970;2023-12-20T08:22:14;3.83;99.99
65207;SHT31;58477;48.072;11.970;2023-12-20T08:24:39;3.82;99.99
65207;SHT31;58477;48.072;11.970;2023-12-20T08:27:05;3.83;99.99
65207;SHT31;58477;48.072;11.970;2023-12-20T08:29:30;3.86;99.99
65207;SHT31;58477;48.072;11.970;2023-12-20T08:31:56;3.85;99.99
65207;SHT31;58477;48.072;11.970;2023-12-20T08:34:22;3.89;99.99
65207;SHT31;58477;48.072;11.970;2023-12-20T08:36:49;3.92;99.99
65207;SHT31;58477;48.072;11.970;2023-12-20T08:39:15;3.89;99.99
65207;SHT31;58477;48.072;11.970;2023-12-20T08:41:40;3.86;99.99
65207;SHT31;58477;48.072;11.970;2023-12-20T08:44:06;3.88;99.99
65207;SHT31;58477;48.072;11.970;2023-12-20T08:46:31;3.85;99.99
65207;SHT31;58477;48.072;11.970;2023-12-20T08:48:56;3.89;99.99
65207;SHT31;58477;48.072;11.970;2023-12-20T08:51:22;3.86;99.99
65207;SHT31;58477;48.072;11.970;2023-12-20T08:53:49;3.88;99.99
65207;SHT31;58477;48.072;11.970;2023-12-20T08:56:15;3.88;99.99
65207;SHT31;58477;48.072;11.970;2023-12-20T08:58:40;3.82;99.99
65207;SHT31;58477;48.072;11.970;2023-12-20T09:01:05;3.81;99.99
65207;SHT31;58477;48.072;11.970;2023-12-20T09:03:32;3.82;99.99
65207;SHT31;58477;48.072;11.970;2023-12-20T09:05:58;3.85;99.99
65207;SHT31;58477;48.072;11.970;2023-12-20T09:08:23;3.81;99.99
65207;SHT31;58477;48.072;11.970;2023-12-20T09:10:48;3.82;99.99
65207;SHT31;58477;48.072;11.970;2023-12-20T09:13:14;3.81;99.99
65207;SHT31;58477;48.072;11.970;2023-12-20T09:15:39;3.77;99.99
65207;SHT31;58477;48.072;11.970;2023-12-20T09:18:05;3.81;99.99
65207;SHT31;58477;48.072;11.970;2023-12-20T09:20:30;3.79;99.99
65207;SHT31;58477;48.072;11.970;2023-12-20T09:22:56;3.85;99.99
65207;SHT31;58477;48.072;11.970;2023-12-20T09:25:21;3.86;99.99
65207;SHT31;58477;48.072;11.970;2023-12-20T09:27:48;3.96;99.99
65207;SHT31;58477;48.072;11.970;2023-12-20T09:30:13;3.93;99.99
65207;SHT31;58477;48.072;11.970;2023-12-20T09:32:39;4.03;99.99
65207;SHT31;58477;48.072;11.970;2023-12-20T09:35:05;4.01;99.99
65207;SHT31;58477;48.072;11.970;2023-12-20T09:37:31;3.98;99.99
65207;SHT31;58477;48.072;11.970;2023-12-20T09:39:57;3.99;99.99
65207;SHT31;58477;48.072;11.970;2023-12-20T09:42:51;3.96;99.99
65207;SHT31;58477;48.072;11.970;2023-12-20T09:45:20;3.98;99.99
65207;SHT31;58477;48.072;11.970;2023-12-20T09:47:47;3.99;99.99
65207;SHT31;58477;48.072;11.970;2023-12-20T09:50:13;4.01;99.99
65207;SHT31;58477;48.072;11.970;2023-12-20T09:52:39;4.01;99.99
65207;SHT31;58477;48.072;11.970;2023-12-20T09:55:06;4.01;99.99
65207;SHT31;58477;48.072;11.970;2023-12-20T09:57:32;4.05;99.99
65207;SHT31;58477;48.072;11.970;2023-12-20T09:59:58;4.05;99.99
65207;SHT31;58477;48.072;11.970;2023-12-20T10:02:25;4.05;99.99
65207;SHT31;58477;48.072;11.970;2023-12-20T10:04:52;4.07;99.99
65207;SHT31;58477;48.072;11.970;2023-12-20T10:07:17;4.16;99.99
65207;SHT31;58477;48.072;11.970;2023-12-20T10:09:43;4.17;99.99
65207;SHT31;58477;48.072;11.970;2023-12-20T10:12:09;4.15;99.99
65207;SHT31;58477;48.072;11.970;2023-12-20T10:14:35;4.07;99.99
65207;SHT31;58477;48.072;11.970;2023-12-20T10:17:04;4.06;99.99
65207;SHT31;58477;48.072;11.970;2023-12-20T10:19:30;4.07;99.99
65207;SHT31;58477;48.072;11.970;2023-12-20T10:21:57;4.02;99.99
65207;SHT31;58477;48.072;11.970;2023-12-20T10:24:24;3.96;99.99
65207;SHT31;58477;48.072;11.970;2023-12-20T10:27:01;3.99;99.99
65207;SHT31;58477;48.072;11.970;2023-12-20T10:29:35;4.01;99.99
65207;SHT31;58477;48.072;11.970;2023-12-20T10:34:53;4.10;99.99
65207;SHT31;58477;48.072;11.970;2023-12-20T10:37:19;4.10;99.99
65207;SHT31;58477;48.072;11.970;2023-12-20T10:39:49;4.13;99.99
65207;SHT31;58477;48.072;11.970;2023-12-20T10:42:15;4.13;99.99
65207;SHT31;58477;48.072;11.970;2023-12-20T10:44:42;4.17;99.99
65207;SHT31;58477;48.072;11.970;2023-12-20T10:47:09;4.19;99.99
65207;SHT31;58477;48.072;11.970;2023-12-20T10:49:38;4.19;99.99
65207;SHT31;58477;48.072;11.970;2023-12-20T10:52:05;4.20;99.99
65207;SHT31;58477;48.072;11.970;2023-12-20T10:54:31;4.25;99.99
65207;SHT31;58477;48.072;11.970;2023-12-20T10:56:58;4.23;99.99
65207;SHT31;58477;48.072;11.970;2023-12-20T10:59:24;4.25;99.99
65207;SHT31;58477;48.072;11.970;2023-12-20T11:01:50;4.28;99.99
65207;SHT31;58477;48.072;11.970;2023-12-20T11:04:24;4.32;99.99
65207;SHT31;58477;48.072;11.970;2023-12-20T11:06:56;4.37;99.99
65207;SHT31;58477;48.072;11.970;2023-12-20T11:09:26;4.42;99.99
65207;SHT31;58477;48.072;11.970;2023-12-20T11:12:13;4.46;99.99
65207;SHT31;58477;48.072;11.970;2023-12-20T11:14:50;4.46;99.99
65207;SHT31;58477;48.072;11.970;2023-12-20T11:17:16;4.61;99.99
65207;SHT31;58477;48.072;11.970;2023-12-20T11:22:17;4.61;99.66
65207;SHT31;58477;48.072;11.970;2023-12-20T11:24:44;4.67;99.82
65207;SHT31;58477;48.072;11.970;2023-12-20T11:27:12;4.56;99.79
65207;SHT31;58477;48.072;11.970;2023-12-20T11:29:38;4.57;99.61
65207;SHT31;58477;48.072;11.970;2023-12-20T11:34:59;4.60;99.86
65207;SHT31;58477;48.072;11.970;2023-12-20T11:37:35;4.53;99.76
65207;SHT31;58477;48.072;11.970;2023-12-20T11:40:03;4.54;99.65
65207;SHT31;58477;48.072;11.970;2023-12-20T11:42:37;4.53;99.59
65207;SHT31;58477;48.072;11.970;2023-12-20T11:45:03;4.57;99.99
65207;SHT31;58477;48.072;11.970;2023-12-20T11:47:30;4.56;99.46
65207;SHT31;58477;48.072;11.970;2023-12-20T11:49:56;4.52;99.87
65207;SHT31;58477;48.072;11.970;2023-12-20T11:52:22;4.64;99.46
65207;SHT31;58477;48.072;11.970;2023-12-20T11:54:47;4.64;99.23
65207;SHT31;58477;48.072;11.970;2023-12-20T11:57:13;4.59;99.86
65207;SHT31;58477;48.072;11.970;2023-12-20T11:59:38;4.71;99.42
65207;SHT31;58477;48.072;11.970;2023-12-20T12:02:04;4.71;99.30
65207;SHT31;58477;48.072;11.970;2023-12-20T12:04:30;4.77;99.94
65207;SHT31;58477;48.072;11.970;2023-12-20T12:06:55;4.84;99.02
65207;SHT31;58477;48.072;11.970;2023-12-20T12:09:20;4.79;99.15
65207;SHT31;58477;48.072;11.970;2023-12-20T12:11:46;4.84;99.40
65207;SHT31;58477;48.072;11.970;2023-12-20T12:14:11;4.79;99.07
65207;SHT31;58477;48.072;11.970;2023-12-20T12:16:37;4.83;98.68
65207;SHT31;58477;48.072;11.970;2023-12-20T12:19:02;4.87;98.66
65207;SHT31;58477;48.072;11.970;2023-12-20T12:21:29;5.02;98.67
65207;SHT31;58477;48.072;11.970;2023-12-20T12:24:06;5.12;98.08
65207;SHT31;58477;48.072;11.970;2023-12-20T12:26:31;5.07;98.36
65207;SHT31;58477;48.072;11.970;2023-12-20T12:28:57;5.12;98.06
65207;SHT31;58477;48.072;11.970;2023-12-20T12:31:23;5.14;98.40
65207;SHT31;58477;48.072;11.970;2023-12-20T12:33:50;4.98;98.54
65207;SHT31;58477;48.072;11.970;2023-12-20T12:36:15;5.04;98.87
65207;SHT31;58477;48.072;11.970;2023-12-20T12:38:42;5.00;98.59
65207;SHT31;58477;48.072;11.970;2023-12-20T12:41:08;4.92;98.50
65207;SHT31;58477;48.072;11.970;2023-12-20T12:43:35;4.95;98.68
65207;SHT31;58477;48.072;11.970;2023-12-20T12:46:00;4.92;99.40
65207;SHT31;58477;48.072;11.970;2023-12-20T12:48:26;5.00;99.05
65207;SHT31;58477;48.072;11.970;2023-12-20T12:50:53;5.04;98.58
65207;SHT31;58477;48.072;11.970;2023-12-20T12:53:19;5.01;98.64
65207;SHT31;58477;48.072;11.970;2023-12-20T12:55:45;4.95;98.57
65207;SHT31;58477;48.072;11.970;2023-12-20T12:58:11;4.90;98.64
65207;SHT31;58477;48.072;11.970;2023-12-20T13:00:36;4.85;98.01
65207;SHT31;58477;48.072;11.970;2023-12-20T13:03:02;4.76;98.25
65207;SHT31;58477;48.072;11.970;2023-12-20T13:05:29;4.66;98.31
65207;SHT31;58477;48.072;11.970;2023-12-20T13:07:55;4.71;98.08
65207;SHT31;58477;48.072;11.970;2023-12-20T13:10:20;4.64;98.36
65207;SHT31;58477;48.072;11.970;2023-12-20T13:12:45;4.60;98.42
65207;SHT31;58477;48.072;11.970;2023-12-20T13:15:11;4.66;98.22
65207;SHT31;58477;48.072;11.970;2023-12-20T13:17:36;4.63;99.10
65207;SHT31;58477;48.072;11.970;2023-12-20T13:20:02;4.60;98.41
65207;SHT31;58477;48.072;11.970;2023-12-20T13:22:28;4.52;99.03
65207;SHT31;58477;48.072;11.970;2023-12-20T13:24:54;4.60;98.52
65207;SHT31;58477;48.072;11.970;2023-12-20T13:27:19;4.63;98.32
65207;SHT31;58477;48.072;11.970;2023-12-20T13:29:45;4.60;98.30
65207;SHT31;58477;48.072;11.970;2023-12-20T13:32:10;4.63;98.04
65207;SHT31;58477;48.072;11.970;2023-12-20T13:34:36;4.74;97.34
65207;SHT31;58477;48.072;11.970;2023-12-20T13:37:01;4.76;97.85
65207;SHT31;58477;48.072;11.970;2023-12-20T13:39:26;4.71;97.70
65207;SHT31;58477;48.072;11.970;2023-12-20T13:41:52;4.73;98.38
65207;SHT31;58477;48.072;11.970;2023-12-20T13:44:17;4.64;98.65
65207;SHT31;58477;48.072;11.970;2023-12-20T13:46:43;4.64;99.21
65207;SHT31;58477;48.072;11.970;2023-12-20T13:49:08;4.46;99.22
65207;SHT31;58477;48.072;11.970;2023-12-20T13:51:34;4.29;99.99
65207;SHT31;58477;48.072;11.970;2023-12-20T13:53:59;4.10;99.99
65207;SHT31;58477;48.072;11.970;2023-12-20T13:56:25;3.91;99.99
65207;SHT31;58477;48.072;11.970;2023-12-20T13:58:51;3.89;99.99
65207;SHT31;58477;48.072;11.970;2023-12-20T14:01:17;3.92;99.99
65207;SHT31;58477;48.072;11.970;2023-12-20T14:03:42;3.85;99.99
65207;SHT31;58477;48.072;11.970;2023-12-20T14:06:07;3.98;99.99
65207;SHT31;58477;48.072;11.970;2023-12-20T14:08:33;3.93;99.99
65207;SHT31;58477;48.072;11.970;2023-12-20T14:10:58;3.92;99.99
65207;SHT31;58477;48.072;11.970;2023-12-20T14:13:24;3.99;99.99
65207;SHT31;58477;48.072;11.970;2023-12-20T14:15:49;3.85;99.99
65207;SHT31;58477;48.072;11.970;2023-12-20T14:18:14;3.78;99.99
65207;SHT31;58477;48.072;11.970;2023-12-20T14:20:41;3.75;99.99
65207;SHT31;58477;48.072;11.970;2023-12-20T14:23:08;3.74;99.99
65207;SHT31;58477;48.072;11.970;2023-12-20T14:25:37;3.70;99.99
65207;SHT31;58477;48.072;11.970;2023-12-20T14:28:03;3.62;99.99
65207;SHT31;58477;48.072;11.970;2023-12-20T14:30:29;3.60;99.99
65207;SHT31;58477;48.072;11.970;2023-12-20T14:32:54;3.54;99.99
65207;SHT31;58477;48.072;11.970;2023-12-20T14:35:20;3.58;99.99
65207;SHT31;58477;48.072;11.970;2023-12-20T14:37:45;3.54;99.99
65207;SHT31;58477;48.072;11.970;2023-12-20T14:40:12;3.51;99.99
65207;SHT31;58477;48.072;11.970;2023-12-20T14:42:42;3.55;99.99
65207;SHT31;58477;48.072;11.970;2023-12-20T14:45:07;3.57;99.99
65207;SHT31;58477;48.072;11.970;2023-12-20T14:47:33;3.47;99.99
65207;SHT31;58477;48.072;11.970;2023-12-20T14:49:59;3.41;99.99
65207;SHT31;58477;48.072;11.970;2023-12-20T14:52:24;3.48;99.99
65207;SHT31;58477;48.072;11.970;2023-12-20T14:54:49;3.51;99.99
65207;SHT31;58477;48.072;11.970;2023-12-20T14:57:15;3.54;99.92
65207;SHT31;58477;48.072;11.970;2023-12-20T14:59:40;3.50;99.66
65207;SHT31;58477;48.072;11.970;2023-12-20T15:02:06;3.48;99.76
65207;SHT31;58477;48.072;11.970;2023-12-20T15:04:32;3.51;99.70
65207;SHT31;58477;48.072;11.970;2023-12-20T15:06:57;3.48;99.79
65207;SHT31;58477;48.072;11.970;2023-12-20T15:09:23;3.42;99.99
65207;SHT31;58477;48.072;11.970;2023-12-20T15:11:49;3.41;99.99
65207;SHT31;58477;48.072;11.970;2023-12-20T15:14:15;3.40;99.75
65207;SHT31;58477;48.072;11.970;2023-12-20T15:16:44;3.40;99.80
65207;SHT31;58477;48.072;11.970;2023-12-20T15:19:11;3.40;99.89
65207;SHT31;58477;48.072;11.970;2023-12-20T15:21:36;3.42;99.66
65207;SHT31;58477;48.072;11.970;2023-12-20T15:24:06;3.38;99.54
65207;SHT31;58477;48.072;11.970;2023-12-20T15:26:38;3.41;99.85
65207;SHT31;58477;48.072;11.970;2023-12-20T15:29:04;3.41;99.18
65207;SHT31;58477;48.072;11.970;2023-12-20T15:31:29;3.41;98.92